createdAt,value
2018-11-22T00:00:21.749Z,14.18
2018-11-22T00:02:52.400Z,14.28
2018-11-22T00:05:21.669Z,14.53
2018-11-22T00:07:51.821Z,13.60
2018-11-22T00:10:21.721Z,14.93
2018-11-22T00:12:50.922Z,16.60
2018-11-22T00:15:20.681Z,16.07
2018-11-22T00:17:50.126Z,18.87
2018-11-22T00:20:19.265Z,15.35
2018-11-22T00:22:48.406Z,14.95
2018-11-22T00:25:17.812Z,14.45
2018-11-22T00:27:46.911Z,14.30
2018-11-22T00:30:23.164Z,14.75
2018-11-22T00:32:52.269Z,13.38
2018-11-22T00:35:21.686Z,15.68
2018-11-22T00:37:51.237Z,14.87
2018-11-22T00:40:21.838Z,14.87
2018-11-22T00:42:51.359Z,15.40
2018-11-22T00:45:22.030Z,14.90
2018-11-22T00:47:51.191Z,15.08
2018-11-22T00:50:21.304Z,14.95
2018-11-22T00:52:51.286Z,14.58
2018-11-22T00:55:22.013Z,15.03
2018-11-22T00:57:51.871Z,15.55
2018-11-22T01:00:22.376Z,14.15
2018-11-22T01:02:51.606Z,14.75
2018-11-22T01:05:21.891Z,14.47
2018-11-22T01:07:51.000Z,14.18
2018-11-22T01:10:21.563Z,13.03
2018-11-22T01:12:52.191Z,13.75
2018-11-22T01:15:21.261Z,14.40
2018-11-22T01:17:50.317Z,12.80
2018-11-22T01:20:20.755Z,13.20
2018-11-22T01:22:50.793Z,13.23
2018-11-22T01:25:34.538Z,14.30
2018-11-22T01:28:03.768Z,13.68
2018-11-22T01:30:32.867Z,13.32
2018-11-22T01:33:01.958Z,13.95
2018-11-22T01:35:31.596Z,14.58
2018-11-22T01:38:00.694Z,14.83
2018-11-22T01:40:29.934Z,14.45
2018-11-22T01:42:58.975Z,14.33
2018-11-22T01:45:28.194Z,13.10
2018-11-22T01:47:57.369Z,14.40
2018-11-22T01:50:26.602Z,13.08
2018-11-22T01:52:55.695Z,14.75
2018-11-22T01:55:24.789Z,14.98
2018-11-22T01:57:53.991Z,12.65
2018-11-22T02:00:24.814Z,13.65
2018-11-22T02:02:54.126Z,13.88
2018-11-22T02:05:24.614Z,14.38
2018-11-22T02:07:54.387Z,14.00
2018-11-22T02:10:24.235Z,15.23
2018-11-22T02:12:53.347Z,15.25
2018-11-22T02:15:23.921Z,13.83
2018-11-22T02:17:53.136Z,14.20
2018-11-22T02:20:23.232Z,13.83
2018-11-22T02:22:53.175Z,13.10
2018-11-22T02:25:23.940Z,13.50
2018-11-22T02:27:53.071Z,13.35
2018-11-22T02:30:23.577Z,12.85
2018-11-22T02:32:54.170Z,12.63
2018-11-22T02:35:23.548Z,11.95
2018-11-22T02:37:52.616Z,13.45
2018-11-22T02:40:22.455Z,12.90
2018-11-22T02:42:52.397Z,12.55
2018-11-22T02:45:22.879Z,12.43
2018-11-22T02:47:52.032Z,13.70
2018-11-22T02:50:22.228Z,13.32
2018-11-22T02:52:52.189Z,13.03
2018-11-22T02:55:21.259Z,12.70
2018-11-22T02:57:50.476Z,14.38
2018-11-22T03:00:28.284Z,13.78
2018-11-22T03:02:57.862Z,12.33
2018-11-22T03:05:27.254Z,13.78
2018-11-22T03:07:56.383Z,12.70
2018-11-22T03:10:25.636Z,13.22
2018-11-22T03:12:54.780Z,14.13
2018-11-22T03:15:23.835Z,14.28
2018-11-22T03:17:52.949Z,14.83
2018-11-22T03:20:22.011Z,18.32
2018-11-22T03:22:51.170Z,21.75
2018-11-22T03:25:20.873Z,22.75
2018-11-22T03:27:50.558Z,23.87
2018-11-22T03:30:20.787Z,24.82
2018-11-22T03:32:49.911Z,30.90
2018-11-22T03:35:20.595Z,30.15
2018-11-22T03:37:49.741Z,24.30
2018-11-22T03:40:23.057Z,36.98
2018-11-22T03:42:54.547Z,25.60
2018-11-22T03:45:24.273Z,27.00
2018-11-22T03:47:53.358Z,36.88
2018-11-22T12:17:49.764Z,23.02
2018-11-22T12:20:19.201Z,22.85
2018-11-22T12:22:49.601Z,23.02
2018-11-22T12:25:20.177Z,23.00
2018-11-22T12:27:50.803Z,24.15
2018-11-22T12:30:21.408Z,23.22
2018-11-22T12:32:55.955Z,23.47
2018-11-22T12:35:30.530Z,22.75
2018-11-22T12:38:05.097Z,23.80
2018-11-22T12:40:34.272Z,24.55
2018-11-22T12:43:03.444Z,22.77
2018-11-22T12:45:32.824Z,24.67
2018-11-22T12:48:02.083Z,25.77
2018-11-22T12:50:31.259Z,26.00
2018-11-22T12:53:00.466Z,27.37
2018-11-22T12:55:29.597Z,26.30
2018-11-22T12:57:58.773Z,26.90
2018-11-22T13:00:28.054Z,27.40
2018-11-22T13:02:57.206Z,26.97
2018-11-22T13:05:26.406Z,25.62
2018-11-22T13:07:55.629Z,26.73
2018-11-22T13:10:24.821Z,28.05
2018-11-22T13:12:53.986Z,26.82
2018-11-22T13:15:23.144Z,26.87
2018-11-22T13:17:52.371Z,27.40
2018-11-22T13:20:22.222Z,28.05
2018-11-22T13:22:51.331Z,27.75
2018-11-22T13:25:21.821Z,26.37
2018-11-22T13:27:50.903Z,29.32
2018-11-22T13:30:21.774Z,27.73
2018-11-22T13:32:51.568Z,27.65
2018-11-22T13:35:20.924Z,29.27
2018-11-22T13:37:51.203Z,27.75
2018-11-22T13:40:20.406Z,27.10
2018-11-22T13:42:50.352Z,25.88
2018-11-22T13:45:21.792Z,26.37
2018-11-22T13:47:51.992Z,25.08
2018-11-22T13:50:24.580Z,25.70
2018-11-22T13:52:55.289Z,27.67
2018-11-22T13:55:24.441Z,26.77
2018-11-22T13:57:53.526Z,23.20
2018-11-22T14:00:24.818Z,26.57
2018-11-22T14:02:55.360Z,26.33
2018-11-22T14:05:24.450Z,26.15
2018-11-22T14:07:53.513Z,27.13
2018-11-22T14:10:22.798Z,25.97
2018-11-22T14:12:52.100Z,27.67
2018-11-22T14:15:22.395Z,25.30
2018-11-22T14:17:52.913Z,27.50
2018-11-22T14:20:23.937Z,27.13
2018-11-22T14:22:53.505Z,25.62
2018-11-22T14:25:22.577Z,27.98
2018-11-22T14:27:51.977Z,28.25
2018-11-22T14:30:23.706Z,26.75
2018-11-22T14:32:53.422Z,28.02
2018-11-22T14:35:23.478Z,27.37
2018-11-22T14:37:52.711Z,27.90
2018-11-22T14:40:27.091Z,26.10
2018-11-22T14:42:56.690Z,26.52
2018-11-22T14:45:26.702Z,26.93
2018-11-22T14:47:57.057Z,27.20
2018-11-22T14:50:31.994Z,27.85
2018-11-22T14:53:06.478Z,26.27
2018-11-22T14:55:35.612Z,26.52
2018-11-22T14:58:05.001Z,26.07
2018-11-22T15:00:34.380Z,26.70
2018-11-22T15:03:03.589Z,26.10
2018-11-22T15:05:32.824Z,26.85
2018-11-22T15:08:02.209Z,27.32
2018-11-22T15:10:31.326Z,26.10
2018-11-22T15:13:00.584Z,27.55
2018-11-22T15:15:30.432Z,27.00
2018-11-22T15:17:59.638Z,27.70
2018-11-22T15:20:28.874Z,26.95
2018-11-22T15:22:58.931Z,26.82
2018-11-22T15:25:29.103Z,26.40
2018-11-22T15:27:58.353Z,27.45
2018-11-22T15:30:29.097Z,25.92
2018-11-22T15:32:59.067Z,27.27
2018-11-22T15:35:29.719Z,25.85
2018-11-22T15:37:59.010Z,26.80
2018-11-22T15:40:28.296Z,28.27
2018-11-22T15:42:58.890Z,28.85
2018-11-22T15:45:34.629Z,27.50
2018-11-22T15:47:58.108Z,29.85
2018-11-22T15:50:28.142Z,31.40
2018-11-22T15:52:57.277Z,30.90
2018-11-22T15:55:26.765Z,37.23
2018-11-22T15:57:57.392Z,32.03
2018-11-22T16:00:30.853Z,30.27
2018-11-22T16:03:00.457Z,27.87
2018-11-22T16:05:29.995Z,26.30
2018-11-22T16:07:59.277Z,27.62
2018-11-22T16:10:29.875Z,27.82
2018-11-22T16:13:00.961Z,27.10
2018-11-22T16:15:37.343Z,26.62
2018-11-22T16:18:06.813Z,25.50
2018-11-22T16:20:36.189Z,25.82
2018-11-22T16:23:05.922Z,25.25
2018-11-22T16:25:35.151Z,26.55
2018-11-22T16:28:05.262Z,25.57
2018-11-22T16:30:34.938Z,27.40
2018-11-22T16:33:04.820Z,27.15
2018-11-22T16:35:34.698Z,28.55
2018-11-22T16:38:03.902Z,27.93
2018-11-22T16:40:33.072Z,27.55
2018-11-22T16:43:03.393Z,27.10
2018-11-22T16:45:33.925Z,40.20
2018-11-22T16:48:08.754Z,35.17
2018-11-22T16:50:39.042Z,43.48
2018-11-22T16:53:08.157Z,32.00
2018-11-22T16:55:37.491Z,35.95
2018-11-22T16:58:07.495Z,40.25
2018-11-22T17:00:37.949Z,43.08
2018-11-22T17:03:09.785Z,37.93
2018-11-22T17:05:39.256Z,29.40
2018-11-22T17:08:09.284Z,27.45
2018-11-22T17:10:38.851Z,27.50
2018-11-22T17:13:08.199Z,27.25
2018-11-22T17:15:38.824Z,28.42
2018-11-22T17:18:08.860Z,25.52
2018-11-22T17:20:38.211Z,26.52
2018-11-22T17:23:07.809Z,26.12
2018-11-22T17:25:37.340Z,26.40
2018-11-22T17:28:07.818Z,27.37
2018-11-22T17:30:39.623Z,28.20
2018-11-22T17:33:08.818Z,28.92
2018-11-22T17:35:38.284Z,35.55
2018-11-22T17:38:08.683Z,54.63
2018-11-22T17:40:40.300Z,27.93
2018-11-22T17:43:09.518Z,27.75
2018-11-22T17:45:39.927Z,27.45
2018-11-22T17:48:09.317Z,26.37
2018-11-22T17:50:39.906Z,26.52
2018-11-22T17:53:09.617Z,28.00
2018-11-22T17:55:38.738Z,27.22
2018-11-22T17:58:07.835Z,27.00
2018-11-22T18:00:41.735Z,27.25
2018-11-22T18:03:11.045Z,26.35
2018-11-22T18:05:40.231Z,26.07
2018-11-22T18:08:09.365Z,26.62
2018-11-22T18:10:39.859Z,28.90
2018-11-22T18:13:08.955Z,28.92
2018-11-22T18:15:56.526Z,26.65
2018-11-22T18:18:26.409Z,26.65
2018-11-22T18:20:55.584Z,27.10
2018-11-22T18:23:24.740Z,28.52
2018-11-22T18:25:53.902Z,27.25
2018-11-22T18:28:23.150Z,28.17
2018-11-22T18:30:52.270Z,27.05
2018-11-22T18:33:21.565Z,26.55
2018-11-22T18:35:50.807Z,27.82
2018-11-22T18:38:20.182Z,26.50
2018-11-22T18:40:49.428Z,27.02
2018-11-22T18:43:18.546Z,27.98
2018-11-22T18:45:48.299Z,26.87
2018-11-22T18:48:18.465Z,29.67
2018-11-22T18:50:48.208Z,25.85
2018-11-22T18:53:17.318Z,31.10
2018-11-22T18:55:47.395Z,28.42
2018-11-22T18:58:16.556Z,28.73
2018-11-22T19:00:46.569Z,28.87
2018-11-22T19:03:17.499Z,26.95
2018-11-22T19:05:46.623Z,25.40
2018-11-22T19:08:15.692Z,27.48
2018-11-22T19:10:45.151Z,29.75
2018-11-22T19:13:14.713Z,26.93
2018-11-22T19:15:45.629Z,27.52
2018-11-22T19:18:16.834Z,27.13
2018-11-22T19:20:46.983Z,26.12
2018-11-22T19:23:16.758Z,25.32
2018-11-22T19:25:46.076Z,26.12
2018-11-22T19:28:15.296Z,25.60
2018-11-22T19:30:45.980Z,25.52
2018-11-22T19:33:16.765Z,26.90
2018-11-22T19:35:48.607Z,26.25
2018-11-22T19:38:18.088Z,25.45
2018-11-22T19:40:47.289Z,28.25
2018-11-22T19:43:16.579Z,26.52
2018-11-22T19:45:47.583Z,29.57
2018-11-22T19:48:16.721Z,26.70
2018-11-22T19:50:45.950Z,25.82
2018-11-22T19:53:16.063Z,26.30
2018-11-22T19:55:45.591Z,25.35
2018-11-22T19:58:15.836Z,25.80
2018-11-22T20:00:45.033Z,25.92
2018-11-22T20:03:14.402Z,27.15
2018-11-22T20:05:44.298Z,28.50
2018-11-22T20:08:15.480Z,41.85
2018-11-22T20:10:47.642Z,42.25
2018-11-22T20:13:17.027Z,30.00
2018-11-22T20:15:46.442Z,27.80
2018-11-22T20:18:15.706Z,27.40
2018-11-22T20:20:49.579Z,26.93
2018-11-22T20:23:17.642Z,26.65
2018-11-22T20:25:43.775Z,26.12
2018-11-22T20:28:12.956Z,27.35
2018-11-22T20:30:43.628Z,27.77
2018-11-22T20:33:13.115Z,26.42
2018-11-22T20:35:42.122Z,27.40
2018-11-22T20:38:11.252Z,27.32
2018-11-22T20:40:40.462Z,27.22
2018-11-22T20:43:09.830Z,27.52
2018-11-22T20:45:40.907Z,26.33
2018-11-22T20:48:08.487Z,25.00
2018-11-22T20:50:37.988Z,25.40
2018-11-22T20:53:08.186Z,25.00
2018-11-22T20:55:38.635Z,25.30
2018-11-22T20:58:07.900Z,23.62
2018-11-22T21:00:39.711Z,25.23
2018-11-22T21:03:09.008Z,24.25
2018-11-22T21:05:38.163Z,22.85
2018-11-22T21:08:07.532Z,25.15
2018-11-22T21:10:36.726Z,24.05
2018-11-22T21:13:06.122Z,23.47
2018-11-22T21:15:39.067Z,25.05
2018-11-22T21:18:09.229Z,24.50
2018-11-22T21:20:39.998Z,25.20
2018-11-22T21:23:09.364Z,23.90
2018-11-22T21:25:38.514Z,23.70
2018-11-22T21:28:07.771Z,24.27
2018-11-22T21:30:38.331Z,25.35
2018-11-22T21:33:07.599Z,25.82
2018-11-22T21:35:37.161Z,25.77
2018-11-22T21:38:08.007Z,27.37
2018-11-22T21:40:38.222Z,27.67
2018-11-22T21:43:07.355Z,26.77
2018-11-22T21:45:36.756Z,27.13
2018-11-22T21:48:06.074Z,25.50
2018-11-22T21:50:35.472Z,25.08
2018-11-22T21:53:04.869Z,26.02
2018-11-22T21:55:34.131Z,26.23
2018-11-22T21:58:03.622Z,24.63
2018-11-22T22:00:36.598Z,25.32
2018-11-22T22:03:07.251Z,24.07
2018-11-22T22:05:36.498Z,23.83
2018-11-22T22:08:05.853Z,24.67
2018-11-22T22:10:35.062Z,25.10
2018-11-22T22:13:04.672Z,24.87
2018-11-22T22:15:35.114Z,23.70
2018-11-22T22:18:04.478Z,23.87
2018-11-22T22:20:35.116Z,23.25
2018-11-22T22:23:04.448Z,24.18
2018-11-22T22:25:33.584Z,23.62
2018-11-22T22:28:03.159Z,23.65
2018-11-22T22:30:33.698Z,25.25
2018-11-22T22:33:04.349Z,23.35
2018-11-22T22:35:33.660Z,23.50
2018-11-22T22:38:02.928Z,24.30
2018-11-22T22:40:32.960Z,23.65
2018-11-22T22:43:02.330Z,27.30
2018-11-22T22:45:32.265Z,31.68
2018-11-22T22:48:01.465Z,27.15
2018-11-22T22:50:31.244Z,28.52
2018-11-22T22:53:00.934Z,31.62
2018-11-22T22:55:30.817Z,29.42
2018-11-22T22:57:59.970Z,30.88
2018-11-22T23:00:39.289Z,28.85
2018-11-22T23:03:08.536Z,25.82
2018-11-22T23:05:38.123Z,25.37
2018-11-22T23:08:07.295Z,27.55
2018-11-22T23:10:36.479Z,26.10
2018-11-22T23:13:06.060Z,27.13
2018-11-22T23:15:35.246Z,27.40
2018-11-22T23:18:04.546Z,28.75
2018-11-22T23:20:35.016Z,27.15
2018-11-22T23:23:04.298Z,28.12
2018-11-22T23:25:34.347Z,27.25
2018-11-22T23:28:03.602Z,28.40
2018-11-22T23:30:34.031Z,29.92
2018-11-22T23:33:04.584Z,27.55
2018-11-22T23:35:33.702Z,26.75
2018-11-22T23:38:02.965Z,27.93
2018-11-22T23:40:32.835Z,28.62
2018-11-22T23:43:01.968Z,30.37
2018-11-22T23:45:32.210Z,28.15
2018-11-22T23:48:01.361Z,29.30
2018-11-22T23:50:31.866Z,27.77
2018-11-22T23:53:02.145Z,28.25
2018-11-22T23:55:31.359Z,28.90
2018-11-22T23:58:00.505Z,30.65
